Time;durP1;ratioP1;P1;durP2;ratioP2;P2;SDS_P1;SDS_P2;PMS_P1;PMS_P2;Temp;Humidity;BMP_temperature;BMP_pressure;BME280_temperature;BME280_humidity;BME280_pressure;Samples;Min_cycle;Max_cycle;Signal;HPM_P1;HPM_P2
2022/06/04 00:03:00;;;;;;;6.07;3.97;;;;;;;15.50;95.41;99853.66;5007835;28;20073;-53
2022/06/04 00:05:48;;;;;;;6.47;3.65;;;;;;;15.51;96.32;99858.00;5009007;28;20049;-54
2022/06/04 00:08:33;;;;;;;4.68;3.67;;;;;;;15.46;96.69;99845.91;5009456;28;20061;-53
2022/06/04 00:17:24;;;;;;;6.25;4.18;;;;;;;15.23;99.51;99854.84;5006597;28;20036;-53
2022/06/04 00:20:11;;;;;;;5.45;4.07;;;;;;;15.16;98.10;99839.28;5006716;28;20081;-52
2022/06/04 00:22:59;;;;;;;8.88;4.80;;;;;;;15.22;97.47;99843.44;5007347;28;20058;-53
2022/06/04 00:25:49;;;;;;;5.90;4.80;;;;;;;15.30;98.17;99858.94;5008065;28;20080;-54
2022/06/04 00:28:34;;;;;;;6.50;3.80;;;;;;;15.12;100.00;99861.44;5007530;28;20054;-52
2022/06/04 00:31:19;;;;;;;6.93;4.40;;;;;;;15.24;100.00;99851.28;5006220;28;20045;-53
2022/06/04 00:34:05;;;;;;;4.32;3.67;;;;;;;15.25;100.00;99842.47;5015298;28;20045;-53
2022/06/04 00:36:49;;;;;;;4.93;3.83;;;;;;;15.18;100.00;99849.78;5010590;28;20061;-53
2022/06/04 00:39:34;;;;;;;5.18;4.05;;;;;;;15.22;100.00;99846.09;5008842;28;20882;-52
2022/06/04 00:42:20;;;;;;;6.13;3.80;;;;;;;15.02;100.00;99830.28;5010913;28;20095;-52
2022/06/04 00:45:19;;;;;;;5.40;4.35;;;;;;;15.09;100.00;99827.28;5014818;28;20042;-52
2022/06/04 00:48:06;;;;;;;7.07;4.32;;;;;;;15.00;100.00;99829.47;5013374;28;20050;-52
2022/06/04 00:50:51;;;;;;;6.90;3.75;;;;;;;14.96;100.00;99826.97;5010385;28;20108;-53
2022/06/04 00:53:36;;;;;;;4.43;3.47;;;;;;;14.91;100.00;99821.00;5007779;28;20048;-53
2022/06/04 00:56:31;;;;;;;8.20;4.82;;;;;;;14.89;100.00;99814.13;5007467;28;20046;-52
2022/06/04 00:59:50;;;;;;;5.45;4.07;;;;;;;14.90;100.00;99811.41;5009843;28;20077;-53
2022/06/04 01:03:22;;;;;;;6.80;4.13;;;;;;;14.85;100.00;99802.84;5012825;28;20042;-52
2022/06/04 01:06:36;;;;;;;7.25;4.82;;;;;;;14.92;100.00;99790.25;4989049;28;20068;-52
2022/06/04 01:09:48;;;;;;;5.68;4.53;;;;;;;14.86;100.00;99782.59;5010254;28;20057;-53
2022/06/04 01:13:00;;;;;;;7.95;4.13;;;;;;;14.88;99.85;99780.72;5011770;28;20088;-53
2022/06/04 01:15:47;;;;;;;5.13;4.32;;;;;;;14.82;100.00;99778.34;5014004;28;20701;-53
2022/06/04 01:18:52;;;;;;;6.03;4.95;;;;;;;14.95;99.74;99776.94;5015689;28;20045;-53
2022/06/04 01:22:00;;;;;;;9.55;5.05;;;;;;;14.86;100.00;99772.91;5008513;28;20092;-53
2022/06/04 01:25:02;;;;;;;7.63;5.47;;;;;;;14.94;98.75;99768.13;5010383;28;20046;-53
2022/06/04 01:27:54;;;;;;;8.48;4.78;;;;;;;14.95;97.47;99761.97;5012311;28;20049;-53
2022/06/04 01:30:43;;;;;;;7.72;4.30;;;;;;;14.98;97.55;99768.00;5011851;28;20764;-53
2022/06/04 01:33:37;;;;;;;6.38;4.32;;;;;;;14.98;97.37;99768.00;5013628;28;20046;-53
2022/06/04 01:36:32;;;;;;;5.60;3.83;;;;;;;14.97;98.50;99767.16;5012872;28;20046;-53
2022/06/04 01:39:27;;;;;;;7.05;3.95;;;;;;;14.87;99.71;99763.22;5011037;28;20089;-53
2022/06/04 01:42:11;;;;;;;5.15;3.60;;;;;;;14.88;98.79;99770.19;5012323;28;20059;-54
2022/06/04 01:45:00;;;;;;;7.10;4.90;;;;;;;14.91;97.94;99763.00;5011570;28;20049;-53
2022/06/04 01:47:47;;;;;;;6.43;4.18;;;;;;;14.88;98.51;99763.16;5012649;28;20050;-53
2022/06/04 01:50:39;;;;;;;5.90;3.78;;;;;;;14.87;98.47;99765.84;5009270;28;20061;-54
2022/06/04 01:53:30;;;;;;;6.38;4.03;;;;;;;14.83;98.78;99764.28;5010768;28;20038;-53
2022/06/04 01:56:28;;;;;;;4.82;3.97;;;;;;;14.85;98.74;99763.28;5005517;28;20053;-54
2022/06/04 01:59:29;;;;;;;8.30;4.68;;;;;;;14.78;99.67;99753.91;5006310;28;20152;-54
2022/06/04 02:02:37;;;;;;;5.50;4.15;;;;;;;14.83;100.00;99756.38;5007618;28;20061;-53
2022/06/04 02:05:27;;;;;;;6.78;4.43;;;;;;;14.71;100.00;99739.28;5007266;28;20054;-53
2022/06/04 02:08:18;;;;;;;6.72;3.95;;;;;;;14.76;99.52;99747.00;5010256;28;20099;-53
2022/06/04 02:11:21;;;;;;;5.10;3.63;;;;;;;14.85;99.58;99743.94;5010447;28;20105;-54
2022/06/04 02:14:07;;;;;;;6.57;4.20;;;;;;;14.66;100.00;99739.50;5010424;28;20046;-53
2022/06/04 02:16:58;;;;;;;4.90;3.95;;;;;;;14.69;99.79;99749.91;5007114;28;20416;-54
2022/06/04 02:19:45;;;;;;;7.10;4.10;;;;;;;14.71;100.00;99741.91;5010905;28;20061;-53
2022/06/04 02:22:31;;;;;;;5.38;4.10;;;;;;;14.58;100.00;99738.09;5011076;28;20050;-54
2022/06/04 02:25:16;;;;;;;7.32;4.30;;;;;;;14.52;100.00;99720.75;5011134;28;20049;-53
2022/06/04 02:28:01;;;;;;;7.50;4.07;;;;;;;14.58;100.00;99731.03;5008316;28;20495;-54
2022/06/04 02:31:00;;;;;;;6.50;4.28;;;;;;;14.58;100.00;99741.59;5013655;28;20073;-54
2022/06/04 02:33:55;;;;;;;6.63;4.95;;;;;;;14.54;100.00;99740.00;5013523;28;20390;-53
2022/06/04 02:37:01;;;;;;;4.28;3.50;;;;;;;14.61;100.00;99744.09;5012903;28;20149;-54
2022/06/04 02:40:01;;;;;;;4.35;3.67;;;;;;;14.70;100.00;99741.06;5012793;28;20085;-54
2022/06/04 02:42:54;;;;;;;4.22;3.63;;;;;;;14.55;100.00;99723.25;5009462;28;20060;-54
2022/06/04 02:45:47;;;;;;;6.40;4.43;;;;;;;14.60;100.00;99734.47;5007768;28;20066;-53
2022/06/04 02:48:39;;;;;;;6.53;4.85;;;;;;;14.51;100.00;99729.59;5009431;28;20050;-54
2022/06/04 02:51:30;;;;;;;5.50;4.28;;;;;;;14.67;100.00;99732.44;5009426;28;20046;-53
2022/06/04 02:54:52;;;;;;;5.68;4.00;;;;;;;14.48;100.00;99737.59;5008895;28;20045;-53
2022/06/04 02:57:41;;;;;;;5.87;4.27;;;;;;;14.60;100.00;99737.13;4993527;28;20546;-53
2022/06/04 03:00:28;;;;;;;5.25;4.38;;;;;;;14.59;100.00;99732.78;5010153;28;20284;-53
2022/06/04 03:03:13;;;;;;;5.63;4.35;;;;;;;14.55;100.00;99732.94;5013746;28;20052;-53
2022/06/04 03:06:01;;;;;;;4.30;3.75;;;;;;;14.62;100.00;99729.97;5014357;28;20053;-54
2022/06/04 03:08:46;;;;;;;4.57;3.83;;;;;;;14.59;100.00;99739.78;5016169;28;20060;-52
2022/06/04 03:11:35;;;;;;;4.10;3.53;;;;;;;14.62;100.00;99737.88;5014143;28;20520;-53
2022/06/04 03:14:20;;;;;;;4.47;3.83;;;;;;;14.69;100.00;99739.38;5015208;28;20472;-53
2022/06/04 03:17:10;;;;;;;5.82;3.55;;;;;;;14.68;100.00;99737.63;5010087;28;20045;-53
2022/06/04 03:19:55;;;;;;;5.82;4.43;;;;;;;14.66;100.00;99734.22;5006548;28;20469;-53
2022/06/04 03:22:39;;;;;;;5.00;3.72;;;;;;;14.72;100.00;99748.91;5007637;28;20065;-54
2022/06/04 03:25:24;;;;;;;5.78;4.00;;;;;;;14.62;100.00;99745.78;5008442;28;20050;-53
2022/06/04 03:28:11;;;;;;;7.22;4.28;;;;;;;14.71;100.00;99745.41;5007285;28;20436;-53
2022/06/04 03:30:56;;;;;;;5.40;4.13;;;;;;;14.78;100.00;99748.63;5008656;28;20046;-53
2022/06/04 03:33:41;;;;;;;5.05;3.50;;;;;;;14.85;100.00;99744.84;5008514;28;20065;-53
2022/06/04 03:36:25;;;;;;;5.95;3.78;;;;;;;14.87;100.00;99742.97;5002715;28;20579;-53
2022/06/04 03:39:11;;;;;;;10.85;3.72;;;;;;;14.83;100.00;99756.38;5008651;28;20042;-52
2022/06/04 03:41:55;;;;;;;6.30;3.70;;;;;;;14.96;100.00;99761.03;5007483;28;20149;-52
2022/06/04 03:44:42;;;;;;;8.30;4.38;;;;;;;14.98;100.00;99758.31;5008206;28;20046;-52
2022/06/04 03:47:27;;;;;;;6.75;4.75;;;;;;;14.99;100.00;99767.09;5008875;28;20038;-52
2022/06/04 03:50:16;;;;;;;5.60;4.22;;;;;;;15.06;100.00;99764.13;5008343;28;20065;-53
2022/06/04 03:53:01;;;;;;;5.10;3.70;;;;;;;15.11;100.00;99775.34;5016045;28;20050;-52
2022/06/04 03:55:45;;;;;;;4.43;3.80;;;;;;;15.14;100.00;99791.03;5014867;28;20041;-52
2022/06/04 03:58:30;;;;;;;5.15;3.90;;;;;;;14.93;100.00;99808.63;5012416;28;20438;-52
2022/06/04 04:01:21;;;;;;;6.32;4.15;;;;;;;14.87;100.00;99808.03;5013769;28;20049;-52
2022/06/04 04:04:05;;;;;;;6.85;3.72;;;;;;;14.89;100.00;99816.75;5007570;28;20046;-52
2022/06/04 04:06:50;;;;;;;5.30;4.20;;;;;;;14.72;100.00;99825.34;5007466;28;20111;-52
2022/06/04 04:09:34;;;;;;;6.22;4.53;;;;;;;14.71;100.00;99813.94;5007442;28;20045;-52
2022/06/04 04:12:19;;;;;;;4.75;3.97;;;;;;;14.89;100.00;99800.94;5007599;28;20123;-53
2022/06/04 04:15:03;;;;;;;5.80;4.13;;;;;;;14.84;100.00;99789.72;5005274;28;20164;-53
2022/06/04 04:17:49;;;;;;;5.18;4.00;;;;;;;14.87;100.00;99784.31;5005699;28;20057;-53
2022/06/04 04:20:39;;;;;;;6.70;4.63;;;;;;;14.99;100.00;99794.31;5009463;28;20045;-53
2022/06/04 04:23:23;;;;;;;7.55;4.65;;;;;;;15.02;100.00;99782.78;5000242;28;20052;-53
2022/06/04 04:26:10;;;;;;;12.00;7.10;;;;;;;14.96;100.00;99783.91;5012150;28;20054;-53
2022/06/04 04:28:55;;;;;;;13.88;6.30;;;;;;;14.84;100.00;99782.66;5010441;28;20054;-53
2022/06/04 04:31:39;;;;;;;8.40;5.65;;;;;;;15.03;100.00;99777.44;5007859;28;20042;-53
2022/06/04 04:34:24;;;;;;;10.00;6.25;;;;;;;15.06;100.00;99779.94;5010208;28;20488;-54
2022/06/04 04:37:08;;;;;;;7.30;5.68;;;;;;;15.26;100.00;99781.69;5010756;28;20385;-53
2022/06/04 04:39:54;;;;;;;6.80;4.90;;;;;;;15.14;100.00;99769.03;5009480;28;20045;-53
2022/06/04 04:42:38;;;;;;;5.85;5.20;;;;;;;15.31;100.00;99784.16;5008934;28;20404;-54
2022/06/04 04:45:26;;;;;;;6.40;5.80;;;;;;;15.28;100.00;99782.50;5007441;28;20381;-53
2022/06/04 04:48:11;;;;;;;10.60;6.90;;;;;;;15.48;100.00;99791.28;5011229;28;20053;-54
2022/06/04 04:50:56;;;;;;;5.50;4.68;;;;;;;15.71;100.00;99795.56;5009053;28;20103;-54
2022/06/04 04:53:41;;;;;;;9.40;6.05;;;;;;;15.61;100.00;99782.75;5008188;28;20169;-53
2022/06/04 04:56:25;;;;;;;6.72;5.38;;;;;;;15.57;100.00;99783.81;5009136;28;20046;-53
2022/06/04 04:59:10;;;;;;;6.35;4.95;;;;;;;15.87;100.00;99784.19;5007308;28;20535;-53
2022/06/04 05:01:55;;;;;;;8.60;5.72;;;;;;;15.57;100.00;99780.31;5008016;28;20752;-54
2022/06/04 05:04:40;;;;;;;9.52;6.68;;;;;;;15.68;100.00;99780.69;5006074;28;20543;-54
2022/06/04 05:07:24;;;;;;;8.70;6.13;;;;;;;15.69;100.00;99776.28;5008758;28;20033;-53
2022/06/04 05:10:10;;;;;;;5.97;5.38;;;;;;;15.77;100.00;99780.28;5009448;28;20133;-54
2022/06/04 05:12:56;;;;;;;7.03;6.00;;;;;;;15.61;100.00;99792.44;5007174;28;20042;-54
2022/06/04 05:15:40;;;;;;;10.57;6.53;;;;;;;15.59;100.00;99794.28;5007547;28;20083;-54
2022/06/04 05:18:25;;;;;;;7.93;6.13;;;;;;;15.68;100.00;99801.81;5007424;28;20177;-53
2022/06/04 05:21:36;;;;;;;8.38;6.20;;;;;;;15.37;100.00;99797.91;5004145;28;20050;-53
2022/06/04 05:24:26;;;;;;;8.13;7.28;;;;;;;15.34;100.00;99782.22;5004759;28;20050;-53
2022/06/04 05:27:10;;;;;;;11.00;8.10;;;;;;;15.40;100.00;99789.88;5006425;28;20050;-53
2022/06/04 05:29:56;;;;;;;8.45;6.18;;;;;;;15.48;100.00;99802.72;5006607;28;20040;-53
2022/06/04 05:32:40;;;;;;;7.45;5.85;;;;;;;15.51;100.00;99801.72;5006684;28;20563;-53
2022/06/04 05:35:24;;;;;;;9.45;7.32;;;;;;;15.29;100.00;99804.47;5008694;28;20054;-54
2022/06/04 05:38:08;;;;;;;10.27;7.15;;;;;;;15.22;100.00;99810.94;5010736;28;20055;-53
2022/06/04 05:41:04;;;;;;;12.02;7.90;;;;;;;15.05;100.00;99796.69;5008061;28;20037;-53
2022/06/04 05:43:49;;;;;;;7.90;6.70;;;;;;;15.19;100.00;99820.69;5008762;28;20050;-52
2022/06/04 05:46:34;;;;;;;8.70;6.50;;;;;;;15.31;100.00;99824.56;5006840;28;20527;-53
2022/06/04 05:49:20;;;;;;;6.72;6.07;;;;;;;15.20;100.00;99827.66;5009130;28;20057;-52
2022/06/04 05:52:04;;;;;;;9.85;7.55;;;;;;;15.30;100.00;99832.53;5008430;28;20053;-53
2022/06/04 05:54:50;;;;;;;12.02;9.07;;;;;;;15.29;100.00;99834.34;5010086;28;20100;-52
2022/06/04 05:57:35;;;;;;;8.63;7.45;;;;;;;15.36;100.00;99834.91;5008976;28;20049;-53
2022/06/04 06:00:19;;;;;;;11.10;7.55;;;;;;;15.31;100.00;99858.88;5009997;28;20038;-52
2022/06/04 06:03:03;;;;;;;9.27;6.53;;;;;;;15.36;100.00;99870.06;5011818;28;20046;-52
2022/06/04 06:05:48;;;;;;;8.35;7.15;;;;;;;15.33;100.00;99898.38;5012256;28;20054;-52
2022/06/04 06:08:32;;;;;;;7.00;5.95;;;;;;;15.33;100.00;99903.66;5012589;28;20042;-52
2022/06/04 06:11:18;;;;;;;7.55;5.88;;;;;;;15.48;100.00;99913.56;5009015;28;21429;-52
2022/06/04 06:14:03;;;;;;;7.70;6.40;;;;;;;15.53;100.00;99915.97;5018149;28;20503;-52
2022/06/04 06:16:50;;;;;;;10.45;6.85;;;;;;;15.68;100.00;99904.78;5017244;28;20044;-52
2022/06/04 06:19:34;;;;;;;9.57;6.78;;;;;;;15.65;100.00;99915.44;5012639;28;20050;-53
2022/06/04 06:22:19;;;;;;;6.80;6.00;;;;;;;15.70;100.00;99917.94;5012091;28;20081;-52
2022/06/04 06:25:05;;;;;;;11.82;6.43;;;;;;;15.75;100.00;99910.66;5008767;28;20058;-52
2022/06/04 06:27:49;;;;;;;9.40;6.70;;;;;;;15.71;100.00;99906.44;5012240;28;20054;-53
2022/06/04 06:30:34;;;;;;;7.05;6.30;;;;;;;15.54;100.00;99900.09;5006083;28;20057;-53
2022/06/04 06:33:19;;;;;;;8.75;6.35;;;;;;;15.77;100.00;99911.44;5012157;28;20049;-52
2022/06/04 06:36:08;;;;;;;6.53;5.80;;;;;;;15.88;100.00;99911.81;5008829;28;20037;-53
2022/06/04 06:38:52;;;;;;;6.93;5.68;;;;;;;15.93;100.00;99907.19;5003710;28;20058;-52
2022/06/04 06:41:38;;;;;;;9.15;6.20;;;;;;;15.83;100.00;99900.63;5004999;28;20050;-52
2022/06/04 06:44:22;;;;;;;7.13;5.28;;;;;;;15.90;100.00;99899.41;5003497;28;20500;-52
2022/06/04 06:47:07;;;;;;;6.72;6.00;;;;;;;15.92;100.00;99904.59;5005345;28;20081;-52
2022/06/04 06:49:52;;;;;;;7.07;6.00;;;;;;;15.70;100.00;99899.47;5008065;28;20057;-53
2022/06/04 06:52:36;;;;;;;8.32;6.90;;;;;;;15.80;100.00;99906.03;5006833;28;20060;-53
2022/06/04 06:55:21;;;;;;;8.52;6.75;;;;;;;15.54;100.00;99910.66;5010746;28;20164;-52
2022/06/04 06:58:05;;;;;;;9.15;8.23;;;;;;;15.84;100.00;99899.69;5012173;28;20050;-52
2022/06/04 07:00:51;;;;;;;9.45;7.28;;;;;;;15.75;100.00;99885.09;5011031;28;20053;-52
2022/06/04 07:03:36;;;;;;;14.00;7.07;;;;;;;15.78;100.00;99884.97;5005431;28;20068;-52
2022/06/04 07:06:47;;;;;;;7.30;6.57;;;;;;;16.02;100.00;99882.13;5005049;28;20145;-52
2022/06/04 07:09:35;;;;;;;8.10;6.97;;;;;;;15.94;100.00;99860.50;5006103;28;20057;-52
2022/06/04 07:12:20;;;;;;;9.50;8.20;;;;;;;15.67;100.00;99852.94;5006632;28;20096;-53
2022/06/04 07:15:05;;;;;;;11.52;9.88;;;;;;;16.04;100.00;99851.22;5007769;28;20445;-52
2022/06/04 07:17:49;;;;;;;13.25;10.98;;;;;;;16.21;100.00;99847.78;5014118;28;20053;-52
2022/06/04 07:20:34;;;;;;;15.05;12.65;;;;;;;16.22;100.00;99860.94;5014278;28;20137;-51
2022/06/04 07:23:19;;;;;;;20.70;14.35;;;;;;;16.13;100.00;99869.28;5010647;28;20386;-52
2022/06/04 07:26:04;;;;;;;24.08;14.40;;;;;;;16.20;100.00;99875.13;5013808;28;20042;-52
2022/06/04 07:28:48;;;;;;;16.77;12.32;;;;;;;16.49;100.00;99858.75;5012480;28;20052;-52
2022/06/04 07:31:34;;;;;;;10.93;8.85;;;;;;;16.57;100.00;99867.16;5011998;28;20101;-52
2022/06/04 07:34:18;;;;;;;8.57;7.68;;;;;;;16.18;100.00;99861.13;5009825;28;20757;-52
2022/06/04 07:37:05;;;;;;;9.40;8.45;;;;;;;16.15;100.00;99871.84;5008464;28;20046;-51
2022/06/04 07:39:49;;;;;;;10.45;9.35;;;;;;;15.98;100.00;99867.34;5007996;28;20045;-51
2022/06/04 07:42:34;;;;;;;10.18;8.15;;;;;;;15.98;100.00;99870.00;5009170;28;20056;-51
2022/06/04 07:45:18;;;;;;;13.63;10.73;;;;;;;15.98;100.00;99878.75;5010020;28;20049;-53
2022/06/04 07:48:04;;;;;;;11.50;10.30;;;;;;;15.87;100.00;99879.28;5007979;28;20103;-52
2022/06/04 07:50:48;;;;;;;11.50;10.38;;;;;;;15.99;100.00;99880.50;5006699;28;20053;-52
2022/06/04 07:53:33;;;;;;;12.68;8.90;;;;;;;16.06;100.00;99875.78;5007435;28;20579;-51
2022/06/04 07:56:19;;;;;;;12.07;10.90;;;;;;;15.78;100.00;99848.00;5007162;28;20172;-51
2022/06/04 07:59:06;;;;;;;13.23;11.88;;;;;;;15.70;100.00;99868.63;5006136;28;20909;-52
2022/06/04 08:01:50;;;;;;;11.40;10.20;;;;;;;15.84;100.00;99862.72;5007547;28;20050;-53
2022/06/04 08:04:35;;;;;;;11.57;10.43;;;;;;;15.78;100.00;99861.19;5006604;28;20065;-51
2022/06/04 08:07:20;;;;;;;13.50;9.80;;;;;;;15.69;100.00;99871.31;5006731;28;20061;-52
2022/06/04 08:10:08;;;;;;;11.75;10.65;;;;;;;15.59;100.00;99866.41;5006209;28;20789;-51
2022/06/04 08:13:02;;;;;;;13.02;10.82;;;;;;;15.58;100.00;99872.63;5005300;28;20050;-52
2022/06/04 08:15:46;;;;;;;12.20;9.52;;;;;;;15.65;100.00;99870.56;5005760;28;20108;-52
2022/06/04 08:18:31;;;;;;;15.35;10.95;;;;;;;15.65;100.00;99865.28;5005850;28;20042;-52
2022/06/04 08:21:15;;;;;;;10.40;8.85;;;;;;;15.91;100.00;99863.28;5007210;28;20046;-52
2022/06/04 08:24:00;;;;;;;10.88;9.50;;;;;;;15.95;100.00;99852.50;5011368;28;20077;-52
2022/06/04 08:26:47;;;;;;;8.60;7.80;;;;;;;16.11;100.00;99850.84;5006479;28;20476;-52
2022/06/04 08:29:34;;;;;;;8.57;7.55;;;;;;;16.28;100.00;99844.78;5009812;28;20642;-52
2022/06/04 08:32:19;;;;;;;9.18;8.35;;;;;;;16.52;100.00;99840.09;5007048;28;20500;-52
2022/06/04 08:35:04;;;;;;;8.50;7.65;;;;;;;16.62;100.00;99847.56;5005639;28;20042;-52
2022/06/04 08:37:49;;;;;;;10.70;7.85;;;;;;;16.77;100.00;99842.41;5006729;28;20050;-53
2022/06/04 08:40:50;;;;;;;7.80;7.10;;;;;;;16.89;100.00;99846.22;5005408;28;20054;-52
2022/06/04 08:43:55;;;;;;;7.85;7.03;;;;;;;16.92;100.00;99843.41;5009254;28;20042;-52
2022/06/04 08:46:47;;;;;;;10.13;7.93;;;;;;;17.07;100.00;99848.88;5005625;28;20050;-52
2022/06/04 08:49:35;;;;;;;7.32;6.63;;;;;;;17.16;100.00;99841.31;5010065;28;20053;-53
2022/06/04 08:52:26;;;;;;;8.07;7.28;;;;;;;17.24;100.00;99844.41;5012034;28;20053;-53
2022/06/04 08:58:53;;;;;;;;;;;;;;;17.38;100.00;99848.97;5006475;28;20050;-52
2022/06/04 09:01:43;;;;;;;8.77;7.07;;;;;;;17.71;100.00;99870.19;5004946;28;19936;-52
2022/06/04 09:04:42;;;;;;;7.63;6.93;;;;;;;17.86;100.00;99871.19;5006449;28;20050;-52
2022/06/04 09:07:31;;;;;;;9.07;8.18;;;;;;;17.78;100.00;99873.41;5007134;28;20069;-52
2022/06/04 09:10:42;;;;;;;9.13;7.45;;;;;;;17.70;100.00;99873.75;5010650;28;20057;-53
2022/06/04 09:13:33;;;;;;;11.90;9.73;;;;;;;17.72;100.00;99873.69;5008150;28;20057;-52
2022/06/04 09:16:31;;;;;;;8.75;7.93;;;;;;;17.72;100.00;99874.53;5001504;28;20311;-53
2022/06/04 09:19:24;;;;;;;9.32;8.45;;;;;;;17.79;100.00;99880.41;5007120;28;20489;-52
2022/06/04 09:22:21;;;;;;;10.07;9.07;;;;;;;17.73;100.00;99886.00;5007759;28;20096;-53
2022/06/04 09:25:15;;;;;;;8.15;7.32;;;;;;;17.82;100.00;99887.34;5009417;28;20100;-53
2022/06/04 09:27:59;;;;;;;9.35;8.45;;;;;;;17.96;100.00;99890.94;5008768;28;20171;-52
2022/06/04 09:30:57;;;;;;;9.32;8.23;;;;;;;17.62;100.00;99891.00;5008920;28;20050;-53
2022/06/04 09:34:02;;;;;;;8.52;7.63;;;;;;;18.12;100.00;99896.25;5016886;28;20050;-52
2022/06/04 09:36:47;;;;;;;8.02;7.28;;;;;;;18.24;100.00;99892.09;5007068;28;20050;-52
2022/06/04 09:39:34;;;;;;;8.23;7.40;;;;;;;18.19;100.00;99891.47;5003179;28;20073;-53
2022/06/04 09:42:27;;;;;;;12.73;7.57;;;;;;;18.45;100.00;99895.31;5003031;28;20101;-53
2022/06/04 09:45:20;;;;;;;;;;;;;;;18.95;100.00;99893.41;5007643;28;20060;-53
2022/06/04 09:48:19;;;;;;;7.75;7.05;;;;;;;18.78;100.00;99897.88;5009194;28;19925;-53
2022/06/04 09:51:17;;;;;;;9.25;7.50;;;;;;;18.88;100.00;99903.50;5006662;28;20049;-53
2022/06/04 09:54:05;;;;;;;8.10;6.75;;;;;;;18.91;100.00;99912.19;5004572;28;20500;-53
2022/06/04 09:56:54;;;;;;;7.03;6.03;;;;;;;19.03;100.00;99913.25;5002838;28;20054;-53
2022/06/04 09:59:38;;;;;;;9.40;6.53;;;;;;;18.90;100.00;99923.72;5005984;28;20645;-53
2022/06/04 10:02:24;;;;;;;6.25;5.53;;;;;;;18.90;100.00;99925.53;5005088;28;20061;-53
2022/06/04 10:05:19;;;;;;;5.72;5.18;;;;;;;18.96;100.00;99932.28;5003030;28;20065;-53
2022/06/04 10:08:23;;;;;;;6.32;5.70;;;;;;;19.29;100.00;99934.75;5004589;28;20471;-53
2022/06/04 10:11:17;;;;;;;8.10;5.72;;;;;;;19.41;100.00;99931.38;5005084;28;20045;-53
2022/06/04 10:14:03;;;;;;;6.65;4.97;;;;;;;19.39;100.00;99931.47;4999139;28;20491;-53
2022/06/04 10:16:47;;;;;;;11.38;7.57;;;;;;;18.93;100.00;99935.97;5004138;28;20038;-53
2022/06/04 10:19:33;;;;;;;10.95;6.90;;;;;;;18.99;100.00;99932.97;5003915;28;20535;-53
2022/06/04 10:22:18;;;;;;;9.07;6.88;;;;;;;19.00;100.00;99928.50;5002973;28;20119;-53
2022/06/04 10:25:03;;;;;;;7.47;6.20;;;;;;;19.07;100.00;99936.00;5004641;28;20045;-53
2022/06/04 10:28:08;;;;;;;7.55;5.90;;;;;;;19.47;100.00;99938.16;5002798;28;20814;-53
2022/06/04 10:31:05;;;;;;;7.85;6.38;;;;;;;19.64;100.00;99926.53;5002916;28;20447;-53
2022/06/04 10:34:02;;;;;;;7.25;5.90;;;;;;;19.68;100.00;99920.91;5002827;28;20045;-53
2022/06/04 10:37:11;;;;;;;8.15;7.35;;;;;;;20.06;100.00;99925.69;5001757;28;20050;-54
2022/06/04 10:40:14;;;;;;;7.68;6.88;;;;;;;19.82;100.00;99934.25;5006443;28;20076;-53
2022/06/04 10:43:33;;;;;;;6.73;6.07;;;;;;;20.00;100.00;99950.00;5007299;28;20042;-54
2022/06/04 10:46:23;;;;;;;6.32;5.65;;;;;;;20.10;100.00;99948.47;4959804;28;20084;-54
2022/06/04 10:49:35;;;;;;;6.82;6.22;;;;;;;20.35;100.00;99945.13;5010711;28;20108;-54
2022/06/04 10:52:41;;;;;;;6.10;5.50;;;;;;;20.47;100.00;99938.16;5008375;28;20046;-54
2022/06/04 10:55:41;;;;;;;7.43;6.57;;;;;;;20.58;100.00;99941.03;5011089;28;20516;-54
2022/06/04 10:58:29;;;;;;;8.18;7.22;;;;;;;20.65;100.00;99939.69;5004721;28;20661;-54
2022/06/04 11:01:27;;;;;;;7.55;6.72;;;;;;;20.85;100.00;99933.06;5006968;28;20053;-55
2022/06/04 11:04:25;;;;;;;6.95;6.25;;;;;;;20.87;100.00;99917.00;5008482;28;20051;-54
2022/06/04 11:07:12;;;;;;;6.65;6.03;;;;;;;20.91;100.00;99919.34;5006965;28;20112;-54
2022/06/04 11:09:58;;;;;;;8.45;7.65;;;;;;;20.94;100.00;99920.94;5008297;28;20049;-54
2022/06/04 11:13:08;;;;;;;8.02;6.50;;;;;;;21.25;100.00;99917.06;5007781;28;20412;-54
2022/06/04 11:16:18;;;;;;;8.25;7.13;;;;;;;21.00;100.00;99908.09;5006890;28;20076;-54
2022/06/04 11:19:05;;;;;;;6.13;5.57;;;;;;;21.80;100.00;99910.66;5002230;28;20061;-54
2022/06/04 11:22:11;;;;;;;5.88;5.38;;;;;;;21.44;100.00;99925.56;5005857;28;20429;-55
2022/06/04 11:25:24;;;;;;;5.63;5.10;;;;;;;21.98;100.00;99926.34;5010259;28;20123;-55
2022/06/04 11:28:12;;;;;;;9.98;6.80;;;;;;;21.91;100.00;99926.75;5005160;28;20034;-55
2022/06/04 11:31:08;;;;;;;11.13;6.80;;;;;;;22.49;100.00;99932.44;4991145;28;20501;-55
2022/06/04 11:34:09;;;;;;;6.72;6.03;;;;;;;23.72;100.00;99924.16;5005475;28;20396;-55
2022/06/04 11:37:35;;;;;;;7.00;6.40;;;;;;;24.43;100.00;99926.59;5009136;28;20045;-55
2022/06/04 11:40:42;;;;;;;5.80;5.28;;;;;;;24.01;100.00;99927.19;4985718;28;20054;-56
2022/06/04 11:43:50;;;;;;;6.07;5.32;;;;;;;23.53;100.00;99929.19;5004007;28;20046;-56
2022/06/04 11:46:52;;;;;;;4.80;4.10;;;;;;;23.35;100.00;99927.91;5010212;28;20049;-55
2022/06/04 11:49:44;;;;;;;;;;;;;;;22.91;100.00;99938.28;5003570;28;20046;-56
2022/06/04 11:52:39;;;;;;;5.15;4.68;;;;;;;22.62;100.00;99937.75;5001980;28;20052;-55
2022/06/04 11:55:40;;;;;;;6.47;5.10;;;;;;;22.46;100.00;99938.00;5008177;28;20148;-56
2022/06/04 11:58:30;;;;;;;6.82;5.25;;;;;;;22.74;100.00;99939.50;5010275;28;20666;-55
2022/06/04 12:01:29;;;;;;;4.75;4.22;;;;;;;22.79;100.00;99942.69;5008779;28;20053;-56
2022/06/04 12:04:27;;;;;;;8.73;5.97;;;;;;;22.81;100.00;99935.44;5011780;28;20052;-55
2022/06/04 12:07:30;;;;;;;4.80;4.28;;;;;;;22.84;100.00;99937.84;5000830;28;20169;-55
2022/06/04 12:10:40;;;;;;;5.03;4.53;;;;;;;23.12;100.00;99937.66;5004661;28;20050;-55
2022/06/04 12:13:38;;;;;;;5.95;4.75;;;;;;;22.29;100.00;99931.19;5005400;28;20499;-57
2022/06/04 12:16:31;;;;;;;5.13;4.50;;;;;;;22.69;100.00;99931.00;5003930;28;20905;-55
2022/06/04 12:25:48;;;;;;;5.85;5.28;;;;;;;23.00;100.00;99929.59;5007380;28;20054;-55
2022/06/04 12:28:42;;;;;;;6.50;4.72;;;;;;;23.42;100.00;99931.81;5009130;28;20088;-55
2022/06/04 12:31:36;;;;;;;4.97;3.83;;;;;;;23.81;100.00;99933.25;5009819;28;20046;-55
2022/06/04 12:34:24;;;;;;;5.40;4.90;;;;;;;24.16;100.00;99930.47;5004751;28;20069;-55
2022/06/04 12:37:24;;;;;;;5.70;4.43;;;;;;;24.03;100.00;99925.25;5004042;28;20483;-55
2022/06/04 12:40:23;;;;;;;5.60;3.22;;;;;;;24.27;100.00;99930.44;5001369;28;20057;-55
2022/06/04 12:43:24;;;;;;;4.00;3.70;;;;;;;23.65;100.00;99922.84;5004941;28;20048;-55
2022/06/04 12:46:14;;;;;;;6.67;4.03;;;;;;;23.92;100.00;99922.56;4999333;28;20065;-55
2022/06/04 12:49:17;;;;;;;4.57;3.47;;;;;;;23.45;100.00;99916.38;5004398;28;20045;-55
2022/06/04 12:52:07;;;;;;;3.97;3.53;;;;;;;23.75;100.00;99913.19;5003145;28;20054;-56
2022/06/04 12:55:07;;;;;;;3.63;3.22;;;;;;;23.65;100.00;99924.69;5003438;28;20054;-55
2022/06/04 12:58:01;;;;;;;9.43;5.07;;;;;;;23.55;100.00;99927.22;5000546;28;20049;-56
2022/06/04 13:00:55;;;;;;;4.43;3.90;;;;;;;23.87;100.00;99916.72;5002516;28;20101;-55
2022/06/04 13:03:42;;;;;;;5.13;3.40;;;;;;;24.54;99.34;99917.69;5003215;28;20058;-55
2022/06/04 13:06:45;;;;;;;5.18;3.15;;;;;;;24.47;96.31;99920.00;5005028;28;20084;-54
2022/06/04 13:10:01;;;;;;;5.78;4.65;;;;;;;24.09;96.70;99921.25;5005939;28;20389;-55
2022/06/04 13:13:18;;;;;;;5.35;4.10;;;;;;;24.10;95.53;99928.28;5006624;28;20046;-54
2022/06/04 13:16:14;;;;;;;3.25;2.95;;;;;;;24.76;94.30;99935.50;5005979;28;20046;-55
2022/06/04 13:19:07;;;;;;;8.88;3.10;;;;;;;24.31;93.63;99930.22;5007806;28;20038;-55
2022/06/04 13:21:52;;;;;;;3.42;2.92;;;;;;;24.70;93.81;99935.06;5007749;28;20056;-55
2022/06/04 13:24:38;;;;;;;6.72;3.28;;;;;;;24.10;94.14;99932.78;5009186;28;20559;-55
2022/06/04 13:27:34;;;;;;;2.63;2.42;;;;;;;24.03;96.52;99935.09;5007101;28;20076;-55
2022/06/04 13:30:23;;;;;;;4.15;3.30;;;;;;;23.63;99.09;99930.16;5003064;28;20091;-55
2022/06/04 13:33:13;;;;;;;3.55;3.25;;;;;;;23.75;96.65;99945.25;5010931;28;20061;-56